sensor_id;sensor_type;location;lat;lon;timestamp;P1;durP1;ratioP1;P2;durP2;ratioP2
13441;SDS011;6793;55.662;13.114;2023-07-16T00:00:28;0.10;;;0.10;;
13441;SDS011;6793;55.662;13.114;2023-07-16T00:02:55;0.10;;;0.10;;
13441;SDS011;6793;55.662;13.114;2023-07-16T00:05:22;0.10;;;0.10;;
13441;SDS011;6793;55.662;13.114;2023-07-16T00:07:49;0.03;;;0.03;;
13441;SDS011;6793;55.662;13.114;2023-07-16T00:10:16;0.10;;;0.10;;
13441;SDS011;6793;55.662;13.114;2023-07-16T00:12:43;0.10;;;0.10;;
13441;SDS011;6793;55.662;13.114;2023-07-16T00:15:12;0.10;;;0.10;;
13441;SDS011;6793;55.662;13.114;2023-07-16T00:17:39;0.10;;;0.10;;
13441;SDS011;6793;55.662;13.114;2023-07-16T00:20:07;0.10;;;0.10;;
13441;SDS011;6793;55.662;13.114;2023-07-16T00:22:34;0.10;;;0.10;;
13441;SDS011;6793;55.662;13.114;2023-07-16T00:25:04;0.05;;;0.05;;
13441;SDS011;6793;55.662;13.114;2023-07-16T00:27:31;0.10;;;0.10;;
13441;SDS011;6793;55.662;13.114;2023-07-16T00:29:58;0.10;;;0.10;;
13441;SDS011;6793;55.662;13.114;2023-07-16T00:32:26;0.00;;;0.00;;
13441;SDS011;6793;55.662;13.114;2023-07-16T00:34:53;0.08;;;0.08;;
13441;SDS011;6793;55.662;13.114;2023-07-16T00:37:20;0.00;;;0.00;;
13441;SDS011;6793;55.662;13.114;2023-07-16T00:39:47;0.00;;;0.00;;
13441;SDS011;6793;55.662;13.114;2023-07-16T00:42:14;0.00;;;0.00;;
13441;SDS011;6793;55.662;13.114;2023-07-16T00:44:41;0.08;;;0.08;;
13441;SDS011;6793;55.662;13.114;2023-07-16T00:47:09;0.00;;;0.00;;
13441;SDS011;6793;55.662;13.114;2023-07-16T00:49:37;0.00;;;0.00;;
13441;SDS011;6793;55.662;13.114;2023-07-16T00:52:05;0.05;;;0.05;;
13441;SDS011;6793;55.662;13.114;2023-07-16T00:54:34;0.00;;;0.00;;
13441;SDS011;6793;55.662;13.114;2023-07-16T00:57:01;0.00;;;0.00;;
13441;SDS011;6793;55.662;13.114;2023-07-16T00:59:28;0.00;;;0.00;;
13441;SDS011;6793;55.662;13.114;2023-07-16T01:01:55;0.00;;;0.00;;
13441;SDS011;6793;55.662;13.114;2023-07-16T01:04:22;0.10;;;0.10;;
13441;SDS011;6793;55.662;13.114;2023-07-16T01:06:51;0.00;;;0.00;;
13441;SDS011;6793;55.662;13.114;2023-07-16T01:09:20;0.00;;;0.00;;
13441;SDS011;6793;55.662;13.114;2023-07-16T01:11:47;0.00;;;0.00;;
13441;SDS011;6793;55.662;13.114;2023-07-16T01:14:16;0.00;;;0.00;;
13441;SDS011;6793;55.662;13.114;2023-07-16T01:16:43;0.00;;;0.00;;
13441;SDS011;6793;55.662;13.114;2023-07-16T01:19:11;0.10;;;0.10;;
13441;SDS011;6793;55.662;13.114;2023-07-16T01:21:44;0.00;;;0.00;;
13441;SDS011;6793;55.662;13.114;2023-07-16T01:24:19;0.00;;;0.00;;
13441;SDS011;6793;55.662;13.114;2023-07-16T01:29:36;0.00;;;0.00;;
13441;SDS011;6793;55.662;13.114;2023-07-16T01:32:06;0.00;;;0.00;;
13441;SDS011;6793;55.662;13.114;2023-07-16T01:34:34;0.00;;;0.00;;
13441;SDS011;6793;55.662;13.114;2023-07-16T01:37:02;0.00;;;0.00;;
13441;SDS011;6793;55.662;13.114;2023-07-16T01:39:29;0.00;;;0.00;;
13441;SDS011;6793;55.662;13.114;2023-07-16T01:41:57;0.00;;;0.00;;
13441;SDS011;6793;55.662;13.114;2023-07-16T01:44:24;0.00;;;0.00;;
13441;SDS011;6793;55.662;13.114;2023-07-16T01:47:03;0.00;;;0.00;;
13441;SDS011;6793;55.662;13.114;2023-07-16T01:49:31;0.00;;;0.00;;
13441;SDS011;6793;55.662;13.114;2023-07-16T01:51:59;0.00;;;0.00;;
13441;SDS011;6793;55.662;13.114;2023-07-16T01:54:26;0.00;;;0.00;;
13441;SDS011;6793;55.662;13.114;2023-07-16T01:56:53;0.00;;;0.00;;
13441;SDS011;6793;55.662;13.114;2023-07-16T01:59:20;0.00;;;0.00;;
13441;SDS011;6793;55.662;13.114;2023-07-16T02:01:47;0.00;;;0.00;;
13441;SDS011;6793;55.662;13.114;2023-07-16T02:04:16;0.00;;;0.00;;
13441;SDS011;6793;55.662;13.114;2023-07-16T02:06:43;0.00;;;0.00;;
13441;SDS011;6793;55.662;13.114;2023-07-16T02:09:10;0.00;;;0.00;;
13441;SDS011;6793;55.662;13.114;2023-07-16T02:11:37;0.00;;;0.00;;
13441;SDS011;6793;55.662;13.114;2023-07-16T02:14:04;0.00;;;0.00;;
13441;SDS011;6793;55.662;13.114;2023-07-16T02:16:31;0.00;;;0.00;;
13441;SDS011;6793;55.662;13.114;2023-07-16T02:18:58;0.00;;;0.00;;
13441;SDS011;6793;55.662;13.114;2023-07-16T02:21:26;0.00;;;0.00;;
13441;SDS011;6793;55.662;13.114;2023-07-16T02:23:53;0.00;;;0.00;;
13441;SDS011;6793;55.662;13.114;2023-07-16T02:26:20;0.00;;;0.00;;
13441;SDS011;6793;55.662;13.114;2023-07-16T02:28:47;0.00;;;0.00;;
13441;SDS011;6793;55.662;13.114;2023-07-16T02:31:14;0.00;;;0.00;;
13441;SDS011;6793;55.662;13.114;2023-07-16T02:33:41;0.00;;;0.00;;
13441;SDS011;6793;55.662;13.114;2023-07-16T02:36:08;0.00;;;0.00;;
13441;SDS011;6793;55.662;13.114;2023-07-16T02:38:37;0.00;;;0.00;;
13441;SDS011;6793;55.662;13.114;2023-07-16T02:41:04;0.00;;;0.00;;
13441;SDS011;6793;55.662;13.114;2023-07-16T02:43:31;0.00;;;0.00;;
13441;SDS011;6793;55.662;13.114;2023-07-16T02:45:58;0.00;;;0.00;;
13441;SDS011;6793;55.662;13.114;2023-07-16T02:48:25;0.00;;;0.00;;
13441;SDS011;6793;55.662;13.114;2023-07-16T02:50:52;0.00;;;0.00;;
13441;SDS011;6793;55.662;13.114;2023-07-16T02:53:19;0.00;;;0.00;;
13441;SDS011;6793;55.662;13.114;2023-07-16T02:55:47;0.00;;;0.00;;
13441;SDS011;6793;55.662;13.114;2023-07-16T02:58:14;0.00;;;0.00;;
13441;SDS011;6793;55.662;13.114;2023-07-16T03:00:41;0.00;;;0.00;;
13441;SDS011;6793;55.662;13.114;2023-07-16T03:03:08;0.00;;;0.00;;
13441;SDS011;6793;55.662;13.114;2023-07-16T03:05:35;0.00;;;0.00;;
13441;SDS011;6793;55.662;13.114;2023-07-16T03:08:02;0.00;;;0.00;;
13441;SDS011;6793;55.662;13.114;2023-07-16T03:10:29;0.00;;;0.00;;
13441;SDS011;6793;55.662;13.114;2023-07-16T03:12:58;0.00;;;0.00;;
13441;SDS011;6793;55.662;13.114;2023-07-16T03:15:25;0.00;;;0.00;;
13441;SDS011;6793;55.662;13.114;2023-07-16T03:17:52;0.00;;;0.00;;
13441;SDS011;6793;55.662;13.114;2023-07-16T03:20:19;0.00;;;0.00;;
13441;SDS011;6793;55.662;13.114;2023-07-16T03:22:46;0.00;;;0.00;;
13441;SDS011;6793;55.662;13.114;2023-07-16T03:25:13;0.00;;;0.00;;
13441;SDS011;6793;55.662;13.114;2023-07-16T03:27:40;0.00;;;0.00;;
13441;SDS011;6793;55.662;13.114;2023-07-16T03:30:09;0.00;;;0.00;;
13441;SDS011;6793;55.662;13.114;2023-07-16T03:32:36;0.00;;;0.00;;
13441;SDS011;6793;55.662;13.114;2023-07-16T03:35:03;0.00;;;0.00;;
13441;SDS011;6793;55.662;13.114;2023-07-16T03:37:30;0.00;;;0.00;;
13441;SDS011;6793;55.662;13.114;2023-07-16T03:40:11;0.00;;;0.00;;
13441;SDS011;6793;55.662;13.114;2023-07-16T03:42:38;0.00;;;0.00;;
13441;SDS011;6793;55.662;13.114;2023-07-16T03:45:05;0.00;;;0.00;;
13441;SDS011;6793;55.662;13.114;2023-07-16T03:47:34;0.00;;;0.00;;
13441;SDS011;6793;55.662;13.114;2023-07-16T03:50:01;0.00;;;0.00;;
13441;SDS011;6793;55.662;13.114;2023-07-16T03:52:28;0.00;;;0.00;;
13441;SDS011;6793;55.662;13.114;2023-07-16T03:54:55;0.00;;;0.00;;
13441;SDS011;6793;55.662;13.114;2023-07-16T03:57:22;0.00;;;0.00;;
13441;SDS011;6793;55.662;13.114;2023-07-16T03:59:49;0.00;;;0.00;;
13441;SDS011;6793;55.662;13.114;2023-07-16T04:02:16;0.00;;;0.00;;
13441;SDS011;6793;55.662;13.114;2023-07-16T04:04:45;0.00;;;0.00;;
13441;SDS011;6793;55.662;13.114;2023-07-16T04:07:12;0.00;;;0.00;;
13441;SDS011;6793;55.662;13.114;2023-07-16T04:09:39;0.00;;;0.00;;
13441;SDS011;6793;55.662;13.114;2023-07-16T04:12:06;0.00;;;0.00;;
13441;SDS011;6793;55.662;13.114;2023-07-16T04:14:34;0.00;;;0.00;;
13441;SDS011;6793;55.662;13.114;2023-07-16T04:17:01;0.00;;;0.00;;
13441;SDS011;6793;55.662;13.114;2023-07-16T04:19:28;0.00;;;0.00;;
13441;SDS011;6793;55.662;13.114;2023-07-16T04:21:56;0.00;;;0.00;;
13441;SDS011;6793;55.662;13.114;2023-07-16T04:24:23;0.00;;;0.00;;
13441;SDS011;6793;55.662;13.114;2023-07-16T04:26:52;0.00;;;0.00;;
13441;SDS011;6793;55.662;13.114;2023-07-16T04:29:19;0.00;;;0.00;;
13441;SDS011;6793;55.662;13.114;2023-07-16T04:31:46;0.00;;;0.00;;
13441;SDS011;6793;55.662;13.114;2023-07-16T04:34:13;0.00;;;0.00;;
13441;SDS011;6793;55.662;13.114;2023-07-16T04:36:41;0.00;;;0.00;;
13441;SDS011;6793;55.662;13.114;2023-07-16T04:39:10;0.00;;;0.00;;
13441;SDS011;6793;55.662;13.114;2023-07-16T04:41:37;0.00;;;0.00;;
13441;SDS011;6793;55.662;13.114;2023-07-16T04:44:04;0.00;;;0.00;;
13441;SDS011;6793;55.662;13.114;2023-07-16T04:46:31;0.00;;;0.00;;
13441;SDS011;6793;55.662;13.114;2023-07-16T04:48:58;0.00;;;0.00;;
13441;SDS011;6793;55.662;13.114;2023-07-16T04:51:25;0.00;;;0.00;;
13441;SDS011;6793;55.662;13.114;2023-07-16T04:53:52;0.00;;;0.00;;
13441;SDS011;6793;55.662;13.114;2023-07-16T04:56:21;0.00;;;0.00;;
13441;SDS011;6793;55.662;13.114;2023-07-16T04:58:48;0.00;;;0.00;;
13441;SDS011;6793;55.662;13.114;2023-07-16T05:01:15;0.00;;;0.00;;
13441;SDS011;6793;55.662;13.114;2023-07-16T05:03:42;0.00;;;0.00;;
13441;SDS011;6793;55.662;13.114;2023-07-16T05:06:09;0.00;;;0.00;;
13441;SDS011;6793;55.662;13.114;2023-07-16T05:08:36;0.00;;;0.00;;
13441;SDS011;6793;55.662;13.114;2023-07-16T05:11:03;0.00;;;0.00;;
13441;SDS011;6793;55.662;13.114;2023-07-16T05:13:31;0.00;;;0.00;;
13441;SDS011;6793;55.662;13.114;2023-07-16T05:15:59;0.00;;;0.00;;
13441;SDS011;6793;55.662;13.114;2023-07-16T05:18:26;0.00;;;0.00;;
13441;SDS011;6793;55.662;13.114;2023-07-16T05:20:53;0.00;;;0.00;;
13441;SDS011;6793;55.662;13.114;2023-07-16T05:23:20;0.00;;;0.00;;
13441;SDS011;6793;55.662;13.114;2023-07-16T05:25:47;0.00;;;0.00;;
13441;SDS011;6793;55.662;13.114;2023-07-16T05:28:14;0.00;;;0.00;;
13441;SDS011;6793;55.662;13.114;2023-07-16T05:30:43;0.00;;;0.00;;
13441;SDS011;6793;55.662;13.114;2023-07-16T05:33:10;0.00;;;0.00;;
13441;SDS011;6793;55.662;13.114;2023-07-16T05:35:37;0.00;;;0.00;;
13441;SDS011;6793;55.662;13.114;2023-07-16T05:38:04;0.00;;;0.00;;
13441;SDS011;6793;55.662;13.114;2023-07-16T05:40:32;0.00;;;0.00;;
13441;SDS011;6793;55.662;13.114;2023-07-16T05:42:59;0.00;;;0.00;;
13441;SDS011;6793;55.662;13.114;2023-07-16T05:45:26;0.00;;;0.00;;
13441;SDS011;6793;55.662;13.114;2023-07-16T05:47:54;0.00;;;0.00;;
13441;SDS011;6793;55.662;13.114;2023-07-16T05:50:21;0.00;;;0.00;;
13441;SDS011;6793;55.662;13.114;2023-07-16T05:52:48;0.00;;;0.00;;
13441;SDS011;6793;55.662;13.114;2023-07-16T05:55:15;0.00;;;0.00;;
13441;SDS011;6793;55.662;13.114;2023-07-16T05:57:42;0.00;;;0.00;;
13441;SDS011;6793;55.662;13.114;2023-07-16T06:00:10;0.00;;;0.00;;
13441;SDS011;6793;55.662;13.114;2023-07-16T06:02:38;0.00;;;0.00;;
13441;SDS011;6793;55.662;13.114;2023-07-16T06:05:07;0.00;;;0.00;;
13441;SDS011;6793;55.662;13.114;2023-07-16T06:07:34;0.00;;;0.00;;
13441;SDS011;6793;55.662;13.114;2023-07-16T06:10:01;0.00;;;0.00;;
13441;SDS011;6793;55.662;13.114;2023-07-16T06:12:28;0.00;;;0.00;;
13441;SDS011;6793;55.662;13.114;2023-07-16T06:14:55;0.00;;;0.00;;
13441;SDS011;6793;55.662;13.114;2023-07-16T06:17:22;0.00;;;0.00;;
13441;SDS011;6793;55.662;13.114;2023-07-16T06:19:49;0.00;;;0.00;;
13441;SDS011;6793;55.662;13.114;2023-07-16T06:22:18;0.00;;;0.00;;
13441;SDS011;6793;55.662;13.114;2023-07-16T06:24:45;0.00;;;0.00;;
13441;SDS011;6793;55.662;13.114;2023-07-16T06:27:12;0.00;;;0.00;;
13441;SDS011;6793;55.662;13.114;2023-07-16T06:29:39;0.00;;;0.00;;
13441;SDS011;6793;55.662;13.114;2023-07-16T06:32:06;0.00;;;0.00;;
13441;SDS011;6793;55.662;13.114;2023-07-16T06:34:34;0.00;;;0.00;;
13441;SDS011;6793;55.662;13.114;2023-07-16T06:37:01;0.00;;;0.00;;
13441;SDS011;6793;55.662;13.114;2023-07-16T06:39:30;0.00;;;0.00;;
13441;SDS011;6793;55.662;13.114;2023-07-16T06:41:57;0.00;;;0.00;;
13441;SDS011;6793;55.662;13.114;2023-07-16T06:44:24;0.00;;;0.00;;
13441;SDS011;6793;55.662;13.114;2023-07-16T06:46:51;0.00;;;0.00;;
13441;SDS011;6793;55.662;13.114;2023-07-16T06:49:19;0.00;;;0.00;;
13441;SDS011;6793;55.662;13.114;2023-07-16T06:51:46;0.00;;;0.00;;
13441;SDS011;6793;55.662;13.114;2023-07-16T06:54:13;0.00;;;0.00;;
13441;SDS011;6793;55.662;13.114;2023-07-16T06:56:41;0.00;;;0.00;;
13441;SDS011;6793;55.662;13.114;2023-07-16T06:59:08;0.00;;;0.00;;
13441;SDS011;6793;55.662;13.114;2023-07-16T07:01:35;0.00;;;0.00;;
13441;SDS011;6793;55.662;13.114;2023-07-16T07:04:02;0.00;;;0.00;;
13441;SDS011;6793;55.662;13.114;2023-07-16T07:06:29;0.00;;;0.00;;
13441;SDS011;6793;55.662;13.114;2023-07-16T07:08:57;0.00;;;0.00;;
13441;SDS011;6793;55.662;13.114;2023-07-16T07:11:24;0.00;;;0.00;;
13441;SDS011;6793;55.662;13.114;2023-07-16T07:13:52;0.00;;;0.00;;
13441;SDS011;6793;55.662;13.114;2023-07-16T07:16:21;0.00;;;0.00;;
13441;SDS011;6793;55.662;13.114;2023-07-16T07:18:48;0.00;;;0.00;;
13441;SDS011;6793;55.662;13.114;2023-07-16T07:21:15;0.00;;;0.00;;
13441;SDS011;6793;55.662;13.114;2023-07-16T07:23:42;0.03;;;0.03;;
13441;SDS011;6793;55.662;13.114;2023-07-16T07:26:09;0.00;;;0.00;;
13441;SDS011;6793;55.662;13.114;2023-07-16T07:28:36;0.00;;;0.00;;
13441;SDS011;6793;55.662;13.114;2023-07-16T07:31:05;0.00;;;0.00;;
13441;SDS011;6793;55.662;13.114;2023-07-16T07:33:32;0.00;;;0.00;;
13441;SDS011;6793;55.662;13.114;2023-07-16T07:35:59;0.00;;;0.00;;
13441;SDS011;6793;55.662;13.114;2023-07-16T07:38:26;0.00;;;0.00;;
13441;SDS011;6793;55.662;13.114;2023-07-16T07:40:53;0.20;;;0.20;;
13441;SDS011;6793;55.662;13.114;2023-07-16T07:43:20;0.20;;;0.20;;
13441;SDS011;6793;55.662;13.114;2023-07-16T07:45:47;0.20;;;0.20;;
13441;SDS011;6793;55.662;13.114;2023-07-16T07:48:16;0.30;;;0.30;;
13441;SDS011;6793;55.662;13.114;2023-07-16T07:50:43;0.40;;;0.40;;
13441;SDS011;6793;55.662;13.114;2023-07-16T07:53:10;0.25;;;0.25;;
13441;SDS011;6793;55.662;13.114;2023-07-16T07:55:37;0.28;;;0.28;;
13441;SDS011;6793;55.662;13.114;2023-07-16T07:58:04;0.40;;;0.40;;
13441;SDS011;6793;55.662;13.114;2023-07-16T08:00:31;0.30;;;0.30;;
13441;SDS011;6793;55.662;13.114;2023-07-16T08:02:58;0.40;;;0.40;;
13441;SDS011;6793;55.662;13.114;2023-07-16T08:05:26;0.40;;;0.40;;
13441;SDS011;6793;55.662;13.114;2023-07-16T08:07:53;0.40;;;0.40;;
13441;SDS011;6793;55.662;13.114;2023-07-16T08:10:20;0.32;;;0.32;;
13441;SDS011;6793;55.662;13.114;2023-07-16T08:12:47;0.30;;;0.30;;
13441;SDS011;6793;55.662;13.114;2023-07-16T08:15:14;0.30;;;0.30;;
13441;SDS011;6793;55.662;13.114;2023-07-16T08:17:41;0.30;;;0.30;;
13441;SDS011;6793;55.662;13.114;2023-07-16T08:20:09;0.30;;;0.30;;
13441;SDS011;6793;55.662;13.114;2023-07-16T08:22:38;0.30;;;0.30;;
13441;SDS011;6793;55.662;13.114;2023-07-16T08:25:06;0.32;;;0.32;;
13441;SDS011;6793;55.662;13.114;2023-07-16T08:27:33;0.30;;;0.30;;
13441;SDS011;6793;55.662;13.114;2023-07-16T08:30:00;0.40;;;0.40;;
13441;SDS011;6793;55.662;13.114;2023-07-16T08:32:27;0.20;;;0.20;;
13441;SDS011;6793;55.662;13.114;2023-07-16T08:34:54;0.30;;;0.30;;
13441;SDS011;6793;55.662;13.114;2023-07-16T08:37:21;0.30;;;0.30;;
13441;SDS011;6793;55.662;13.114;2023-07-16T08:39:51;0.20;;;0.20;;
13441;SDS011;6793;55.662;13.114;2023-07-16T08:42:19;0.30;;;0.30;;
13441;SDS011;6793;55.662;13.114;2023-07-16T08:44:46;0.30;;;0.30;;
13441;SDS011;6793;55.662;13.114;2023-07-16T08:47:15;0.30;;;0.30;;
13441;SDS011;6793;55.662;13.114;2023-07-16T08:49:43;0.30;;;0.30;;
13441;SDS011;6793;55.662;13.114;2023-07-16T08:52:17;0.30;;;0.30;;
13441;SDS011;6793;55.662;13.114;2023-07-16T08:54:44;0.30;;;0.30;;
13441;SDS011;6793;55.662;13.114;2023-07-16T08:57:13;0.30;;;0.30;;
13441;SDS011;6793;55.662;13.114;2023-07-16T08:59:40;0.30;;;0.30;;
13441;SDS011;6793;55.662;13.114;2023-07-16T09:02:07;0.30;;;0.30;;
13441;SDS011;6793;55.662;13.114;2023-07-16T09:04:33;0.20;;;0.20;;
13441;SDS011;6793;55.662;13.114;2023-07-16T09:07:00;0.30;;;0.30;;
13441;SDS011;6793;55.662;13.114;2023-07-16T09:09:27;0.30;;;0.30;;
13441;SDS011;6793;55.662;13.114;2023-07-16T09:11:54;0.30;;;0.30;;
13441;SDS011;6793;55.662;13.114;2023-07-16T09:14:23;0.20;;;0.20;;
13441;SDS011;6793;55.662;13.114;2023-07-16T09:16:50;0.30;;;0.30;;
13441;SDS011;6793;55.662;13.114;2023-07-16T09:19:18;0.28;;;0.28;;
13441;SDS011;6793;55.662;13.114;2023-07-16T09:21:46;0.30;;;0.30;;
13441;SDS011;6793;55.662;13.114;2023-07-16T09:24:13;0.30;;;0.30;;
13441;SDS011;6793;55.662;13.114;2023-07-16T09:26:47;0.30;;;0.30;;
13441;SDS011;6793;55.662;13.114;2023-07-16T09:29:14;0.40;;;0.40;;
13441;SDS011;6793;55.662;13.114;2023-07-16T09:31:52;0.30;;;0.30;;
13441;SDS011;6793;55.662;13.114;2023-07-16T09:34:19;0.30;;;0.30;;
13441;SDS011;6793;55.662;13.114;2023-07-16T09:36:46;0.40;;;0.40;;
13441;SDS011;6793;55.662;13.114;2023-07-16T09:39:14;0.38;;;0.38;;
13441;SDS011;6793;55.662;13.114;2023-07-16T09:41:42;0.30;;;0.30;;
13441;SDS011;6793;55.662;13.114;2023-07-16T09:44:09;0.30;;;0.30;;
13441;SDS011;6793;55.662;13.114;2023-07-16T09:46:37;0.30;;;0.30;;
13441;SDS011;6793;55.662;13.114;2023-07-16T09:49:06;0.30;;;0.30;;
13441;SDS011;6793;55.662;13.114;2023-07-16T09:51:33;0.32;;;0.32;;
13441;SDS011;6793;55.662;13.114;2023-07-16T09:54:02;0.30;;;0.30;;
13441;SDS011;6793;55.662;13.114;2023-07-16T09:56:30;0.40;;;0.40;;
13441;SDS011;6793;55.662;13.114;2023-07-16T09:58:59;0.43;;;0.43;;
13441;SDS011;6793;55.662;13.114;2023-07-16T10:01:26;0.40;;;0.40;;
13441;SDS011;6793;55.662;13.114;2023-07-16T10:03:53;0.40;;;0.40;;
13441;SDS011;6793;55.662;13.114;2023-07-16T10:06:22;0.40;;;0.40;;
13441;SDS011;6793;55.662;13.114;2023-07-16T10:08:49;0.47;;;0.47;;
13441;SDS011;6793;55.662;13.114;2023-07-16T10:11:17;0.40;;;0.40;;
13441;SDS011;6793;55.662;13.114;2023-07-16T10:13:48;0.40;;;0.40;;
13441;SDS011;6793;55.662;13.114;2023-07-16T10:16:19;0.40;;;0.40;;
13441;SDS011;6793;55.662;13.114;2023-07-16T10:18:50;0.40;;;0.40;;
13441;SDS011;6793;55.662;13.114;2023-07-16T10:21:23;0.40;;;0.40;;
13441;SDS011;6793;55.662;13.114;2023-07-16T10:23:56;0.40;;;0.40;;
13441;SDS011;6793;55.662;13.114;2023-07-16T10:26:26;0.40;;;0.40;;
13441;SDS011;6793;55.662;13.114;2023-07-16T10:28:53;0.40;;;0.40;;
13441;SDS011;6793;55.662;13.114;2023-07-16T10:31:20;0.40;;;0.40;;
13441;SDS011;6793;55.662;13.114;2023-07-16T10:34:00;0.40;;;0.40;;
13441;SDS011;6793;55.662;13.114;2023-07-16T10:36:30;0.40;;;0.40;;
13441;SDS011;6793;55.662;13.114;2023-07-16T10:39:03;0.50;;;0.50;;
13441;SDS011;6793;55.662;13.114;2023-07-16T10:41:31;0.50;;;0.50;;
13441;SDS011;6793;55.662;13.114;2023-07-16T10:43:58;0.40;;;0.40;;
13441;SDS011;6793;55.662;13.114;2023-07-16T10:46:25;0.40;;;0.40;;
13441;SDS011;6793;55.662;13.114;2023-07-16T10:48:53;0.30;;;0.30;;
13441;SDS011;6793;55.662;13.114;2023-07-16T10:51:24;0.30;;;0.30;;
13441;SDS011;6793;55.662;13.114;2023-07-16T10:53:54;0.30;;;0.30;;
13441;SDS011;6793;55.662;13.114;2023-07-16T10:56:22;0.50;;;0.50;;
13441;SDS011;6793;55.662;13.114;2023-07-16T10:58:49;0.43;;;0.43;;
13441;SDS011;6793;55.662;13.114;2023-07-16T11:01:16;0.40;;;0.40;;
13441;SDS011;6793;55.662;13.114;2023-07-16T11:03:43;0.40;;;0.40;;
13441;SDS011;6793;55.662;13.114;2023-07-16T11:06:10;0.40;;;0.40;;
13441;SDS011;6793;55.662;13.114;2023-07-16T11:08:37;0.40;;;0.40;;
13441;SDS011;6793;55.662;13.114;2023-07-16T11:11:06;0.30;;;0.30;;
13441;SDS011;6793;55.662;13.114;2023-07-16T11:13:33;0.40;;;0.40;;
13441;SDS011;6793;55.662;13.114;2023-07-16T11:16:06;0.50;;;0.50;;
13441;SDS011;6793;55.662;13.114;2023-07-16T11:18:33;0.40;;;0.40;;
13441;SDS011;6793;55.662;13.114;2023-07-16T11:21:00;0.50;;;0.50;;
13441;SDS011;6793;55.662;13.114;2023-07-16T11:23:27;0.60;;;0.60;;
13441;SDS011;6793;55.662;13.114;2023-07-16T11:25:54;0.50;;;0.50;;
13441;SDS011;6793;55.662;13.114;2023-07-16T11:28:22;0.40;;;0.40;;
13441;SDS011;6793;55.662;13.114;2023-07-16T11:30:49;0.30;;;0.30;;
13441;SDS011;6793;55.662;13.114;2023-07-16T11:33:16;0.40;;;0.40;;
13441;SDS011;6793;55.662;13.114;2023-07-16T11:35:43;0.38;;;0.38;;
13441;SDS011;6793;55.662;13.114;2023-07-16T11:38:10;0.40;;;0.40;;
13441;SDS011;6793;55.662;13.114;2023-07-16T11:40:37;0.40;;;0.40;;
13441;SDS011;6793;55.662;13.114;2023-07-16T11:43:08;0.30;;;0.30;;
13441;SDS011;6793;55.662;13.114;2023-07-16T11:45:37;0.30;;;0.30;;
13441;SDS011;6793;55.662;13.114;2023-07-16T11:48:05;0.20;;;0.20;;
13441;SDS011;6793;55.662;13.114;2023-07-16T11:50:32;0.10;;;0.10;;
13441;SDS011;6793;55.662;13.114;2023-07-16T11:53:00;0.25;;;0.25;;
13441;SDS011;6793;55.662;13.114;2023-07-16T11:55:27;0.20;;;0.20;;
13441;SDS011;6793;55.662;13.114;2023-07-16T11:57:54;0.20;;;0.20;;
13441;SDS011;6793;55.662;13.114;2023-07-16T12:00:24;0.20;;;0.20;;
13441;SDS011;6793;55.662;13.114;2023-07-16T12:02:52;0.20;;;0.20;;
13441;SDS011;6793;55.662;13.114;2023-07-16T12:05:20;0.20;;;0.20;;
13441;SDS011;6793;55.662;13.114;2023-07-16T12:07:49;0.20;;;0.20;;
13441;SDS011;6793;55.662;13.114;2023-07-16T12:10:16;0.20;;;0.20;;
13441;SDS011;6793;55.662;13.114;2023-07-16T12:12:43;0.20;;;0.20;;
13441;SDS011;6793;55.662;13.114;2023-07-16T12:15:09;0.20;;;0.20;;
13441;SDS011;6793;55.662;13.114;2023-07-16T12:17:37;0.20;;;0.20;;
13441;SDS011;6793;55.662;13.114;2023-07-16T12:20:06;0.20;;;0.20;;
13441;SDS011;6793;55.662;13.114;2023-07-16T12:22:33;0.20;;;0.20;;
13441;SDS011;6793;55.662;13.114;2023-07-16T12:25:01;0.20;;;0.20;;
13441;SDS011;6793;55.662;13.114;2023-07-16T12:27:29;0.20;;;0.20;;
13441;SDS011;6793;55.662;13.114;2023-07-16T12:29:56;0.30;;;0.30;;
13441;SDS011;6793;55.662;13.114;2023-07-16T12:32:23;0.20;;;0.20;;
13441;SDS011;6793;55.662;13.114;2023-07-16T12:34:50;0.40;;;0.40;;
13441;SDS011;6793;55.662;13.114;2023-07-16T12:37:18;0.40;;;0.40;;
13441;SDS011;6793;55.662;13.114;2023-07-16T12:39:45;0.30;;;0.30;;
13441;SDS011;6793;55.662;13.114;2023-07-16T12:42:12;0.40;;;0.40;;
13441;SDS011;6793;55.662;13.114;2023-07-16T12:44:39;0.30;;;0.30;;
13441;SDS011;6793;55.662;13.114;2023-07-16T12:47:06;0.30;;;0.30;;
13441;SDS011;6793;55.662;13.114;2023-07-16T12:49:34;0.30;;;0.30;;
13441;SDS011;6793;55.662;13.114;2023-07-16T12:52:01;0.30;;;0.30;;
13441;SDS011;6793;55.662;13.114;2023-07-16T12:54:29;0.30;;;0.30;;
13441;SDS011;6793;55.662;13.114;2023-07-16T12:56:56;0.30;;;0.30;;
13441;SDS011;6793;55.662;13.114;2023-07-16T12:59:23;0.30;;;0.30;;
13441;SDS011;6793;55.662;13.114;2023-07-16T13:01:50;0.20;;;0.20;;
13441;SDS011;6793;55.662;13.114;2023-07-16T13:04:18;0.30;;;0.30;;
13441;SDS011;6793;55.662;13.114;2023-07-16T13:06:45;0.40;;;0.40;;
13441;SDS011;6793;55.662;13.114;2023-07-16T13:09:12;0.30;;;0.30;;
13441;SDS011;6793;55.662;13.114;2023-07-16T13:11:42;0.30;;;0.30;;
13441;SDS011;6793;55.662;13.114;2023-07-16T13:14:09;0.20;;;0.20;;
13441;SDS011;6793;55.662;13.114;2023-07-16T13:16:36;0.38;;;0.38;;
13441;SDS011;6793;55.662;13.114;2023-07-16T13:19:03;0.30;;;0.30;;
13441;SDS011;6793;55.662;13.114;2023-07-16T13:21:31;0.30;;;0.30;;
13441;SDS011;6793;55.662;13.114;2023-07-16T13:23:58;0.28;;;0.28;;
13441;SDS011;6793;55.662;13.114;2023-07-16T13:26:25;0.30;;;0.30;;
13441;SDS011;6793;55.662;13.114;2023-07-16T13:28:53;0.30;;;0.30;;
13441;SDS011;6793;55.662;13.114;2023-07-16T13:31:20;0.30;;;0.30;;
13441;SDS011;6793;55.662;13.114;2023-07-16T13:33:47;0.30;;;0.30;;
13441;SDS011;6793;55.662;13.114;2023-07-16T13:36:14;0.30;;;0.30;;
13441;SDS011;6793;55.662;13.114;2023-07-16T13:38:41;0.30;;;0.30;;
13441;SDS011;6793;55.662;13.114;2023-07-16T13:41:08;0.30;;;0.30;;
13441;SDS011;6793;55.662;13.114;2023-07-16T13:43:35;0.30;;;0.30;;
13441;SDS011;6793;55.662;13.114;2023-07-16T13:46:04;0.30;;;0.30;;
13441;SDS011;6793;55.662;13.114;2023-07-16T13:48:31;0.30;;;0.30;;
13441;SDS011;6793;55.662;13.114;2023-07-16T13:50:58;0.30;;;0.30;;
13441;SDS011;6793;55.662;13.114;2023-07-16T13:53:25;0.30;;;0.30;;
13441;SDS011;6793;55.662;13.114;2023-07-16T13:55:52;0.30;;;0.30;;
13441;SDS011;6793;55.662;13.114;2023-07-16T13:58:19;0.30;;;0.30;;
13441;SDS011;6793;55.662;13.114;2023-07-16T14:00:46;0.28;;;0.28;;
13441;SDS011;6793;55.662;13.114;2023-07-16T14:03:14;0.30;;;0.30;;
13441;SDS011;6793;55.662;13.114;2023-07-16T14:05:41;0.20;;;0.20;;
13441;SDS011;6793;55.662;13.114;2023-07-16T14:08:08;0.30;;;0.30;;
13441;SDS011;6793;55.662;13.114;2023-07-16T14:10:35;0.20;;;0.20;;
13441;SDS011;6793;55.662;13.114;2023-07-16T14:13:02;0.30;;;0.30;;
13441;SDS011;6793;55.662;13.114;2023-07-16T14:15:29;0.30;;;0.30;;
13441;SDS011;6793;55.662;13.114;2023-07-16T14:17:56;0.30;;;0.30;;
13441;SDS011;6793;55.662;13.114;2023-07-16T14:20:25;0.30;;;0.30;;
13441;SDS011;6793;55.662;13.114;2023-07-16T14:22:52;0.30;;;0.30;;
13441;SDS011;6793;55.662;13.114;2023-07-16T14:25:19;0.30;;;0.30;;
13441;SDS011;6793;55.662;13.114;2023-07-16T14:27:47;0.20;;;0.20;;
13441;SDS011;6793;55.662;13.114;2023-07-16T14:30:14;0.30;;;0.30;;
13441;SDS011;6793;55.662;13.114;2023-07-16T14:32:41;0.40;;;0.40;;
13441;SDS011;6793;55.662;13.114;2023-07-16T14:35:09;0.30;;;0.30;;
13441;SDS011;6793;55.662;13.114;2023-07-16T14:37:38;0.30;;;0.30;;
13441;SDS011;6793;55.662;13.114;2023-07-16T14:40:05;0.30;;;0.30;;
13441;SDS011;6793;55.662;13.114;2023-07-16T14:42:33;0.30;;;0.30;;
13441;SDS011;6793;55.662;13.114;2023-07-16T14:45:00;0.30;;;0.30;;
13441;SDS011;6793;55.662;13.114;2023-07-16T14:47:29;0.30;;;0.30;;
13441;SDS011;6793;55.662;13.114;2023-07-16T14:49:56;0.30;;;0.30;;
13441;SDS011;6793;55.662;13.114;2023-07-16T14:52:23;0.30;;;0.30;;